Terminal Aerodrome Forecast
Issued by NWS

Home | Current Version | Previous Version | Text Only | Print | Product List | Glossary On
Versions: 1 2 3 4 5 6 7 8 9 10 11 12 13 14 15 16 17 18 19 20
417
FTUS43 KSGF 272320
TAFJLN
TAF
KJLN 272320Z 2800/2824 17012G18KT P6SM BKN050
     FM280300 17011G19KT P6SM BKN025
     FM281000 19013G21KT 6SM BR OVC015
     FM281600 20016G28KT P6SM BKN045=

USA.gov is the U.S. government's official web portal to all federal, state and local government web resources and services.